Terminal Aerodrome Forecast
Issued by NWS Cleveland, OH

Home | Current Version | Previous Version | Graphics & Text | Print | Product List | Glossary Off
Versions: 1 2 3 4 5 6 7 8 9 10 11 12 13 14 15 16 17 18 19 20 21 22 23 24 25 26

339
FTUS41 KCLE 040541
TAFERI
TAF
KERI 040541Z 0406/0506 18006KT P6SM SCT100
     FM041400 20008KT P6SM BKN100
     FM041900 02008KT P6SM SCT050 OVC100
      TEMPO 0421/0501 5SM -SHRA OVC050=

USA.gov is the U.S. government's official web portal to all federal, state and local government web resources and services.